Time;durP1;ratioP1;P1;durP2;ratioP2;P2;SDS_P1;SDS_P2;PMS_P1;PMS_P2;Temp;Humidity;BMP_temperature;BMP_pressure;BME280_temperature;BME280_humidity;BME280_pressure;Samples;Min_cycle;Max_cycle;Signal;HPM_P1;HPM_P2
2023/05/12 00:02:06;;;;;;;14.90;7.95;;;13.60;99.90;;;;;;5104642;27;20088;-87
2023/05/12 00:04:31;;;;;;;15.55;7.85;;;13.50;99.90;;;;;;5102946;27;20043;-87
2023/05/12 00:06:57;;;;;;;16.02;13.95;;;13.50;99.90;;;;;;5104756;27;20047;-87
2023/05/12 00:09:23;;;;;;;15.77;8.27;;;13.60;99.90;;;;;;5104026;27;20043;-87
2023/05/12 00:11:48;;;;;;;16.92;14.45;;;13.50;99.90;;;;;;5103008;27;20043;-88
2023/05/12 00:14:15;;;;;;;18.17;8.77;;;13.60;99.90;;;;;;5103350;28;20070;-87
2023/05/12 00:16:41;;;;;;;14.90;8.35;;;13.60;99.90;;;;;;5122579;27;20063;-87
2023/05/12 00:19:07;;;;;;;16.75;8.38;;;13.50;99.90;;;;;;5104537;27;20406;-87
2023/05/12 00:21:33;;;;;;;18.95;15.98;;;13.50;99.90;;;;;;5102801;28;20028;-87
2023/05/12 00:23:58;;;;;;;19.40;16.92;;;13.50;99.90;;;;;;5087757;27;20442;-87
2023/05/12 00:26:24;;;;;;;21.13;17.52;;;13.60;99.90;;;;;;5122144;27;20040;-87
2023/05/12 00:28:50;;;;;;;19.05;9.15;;;13.60;99.90;;;;;;5102732;28;20039;-87
2023/05/12 00:31:15;;;;;;;16.10;8.93;;;13.50;99.90;;;;;;5087421;27;20088;-88
2023/05/12 00:33:41;;;;;;;16.45;9.77;;;13.50;99.90;;;;;;5103676;28;20114;-87
2023/05/12 00:36:07;;;;;;;22.38;19.05;;;13.50;99.90;;;;;;5086182;28;20514;-87
2023/05/12 00:38:33;;;;;;;19.85;10.32;;;13.50;99.90;;;;;;5088076;28;20118;-87
2023/05/12 00:41:00;;;;;;;18.58;9.10;;;13.50;99.90;;;;;;5103049;28;20035;-87
2023/05/12 00:43:25;;;;;;;21.88;18.92;;;13.50;99.90;;;;;;5086392;28;20039;-88
2023/05/12 00:45:51;;;;;;;24.27;20.17;;;13.50;99.90;;;;;;5087894;28;20035;-87
2023/05/12 00:48:18;;;;;;;21.83;19.42;;;13.60;99.90;;;;;;5102715;28;20039;-87
2023/05/12 00:50:43;;;;;;;19.83;10.95;;;13.60;99.90;;;;;;5086270;28;20035;-87
2023/05/12 00:53:10;;;;;;;18.45;11.10;;;13.60;99.90;;;;;;5104500;28;20043;-87
2023/05/12 00:55:36;;;;;;;20.67;12.50;;;13.50;99.90;;;;;;5084591;28;20031;-87
2023/05/12 00:58:02;;;;;;;25.88;22.70;;;13.50;99.90;;;;;;5072214;28;20036;-87
2023/05/12 01:00:28;;;;;;;25.25;22.55;;;13.50;99.90;;;;;;5087796;28;20063;-87
2023/05/12 01:02:57;;;;;;;28.40;24.70;;;13.60;99.90;;;;;;5071114;28;20577;-88
2023/05/12 01:05:29;;;;;;;23.98;12.27;;;13.60;99.90;;;;;;5073918;27;20040;-88
2023/05/12 01:07:58;;;;;;;22.48;13.55;;;13.60;99.90;;;;;;5089565;27;20046;-87
2023/05/12 01:10:24;;;;;;;21.33;12.25;;;13.50;99.90;;;;;;5104487;27;20093;-87
2023/05/12 01:12:50;;;;;;;24.65;15.82;;;13.50;99.90;;;;;;5107018;27;20438;-88
2023/05/12 01:15:17;;;;;;;25.27;14.48;;;13.50;99.90;;;;;;5091726;27;20034;-87
2023/05/12 01:17:49;;;;;;;26.05;16.27;;;13.50;99.90;;;;;;5089502;27;20027;-88
2023/05/12 01:20:17;;;;;;;25.77;15.02;;;13.50;99.90;;;;;;5105951;27;20039;-87
2023/05/12 01:22:43;;;;;;;25.92;16.33;;;13.50;99.90;;;;;;5084999;27;20035;-87
2023/05/12 01:25:11;;;;;;;25.08;15.23;;;13.40;99.90;;;;;;5106907;27;20168;-88
2023/05/12 01:27:39;;;;;;;29.73;26.52;;;13.50;99.90;;;;;;5091326;27;20117;-88
2023/05/12 01:30:06;;;;;;;32.20;26.70;;;13.50;99.90;;;;;;5089505;27;20051;-87
2023/05/12 01:32:32;;;;;;;31.05;13.95;;;13.60;99.90;;;;;;5089551;27;20035;-87
2023/05/12 01:34:58;;;;;;;27.10;14.18;;;13.50;99.90;;;;;;5107997;27;20534;-88
2023/05/12 01:37:26;;;;;;;25.83;13.27;;;13.50;99.90;;;;;;5106131;27;20035;-87
2023/05/12 01:39:52;;;;;;;33.67;28.27;;;13.40;99.90;;;;;;5100495;28;20063;-87
2023/05/12 01:42:18;;;;;;;29.38;14.38;;;13.50;99.90;;;;;;5080084;28;20492;-87
2023/05/12 01:44:44;;;;;;;27.80;13.52;;;13.50;99.90;;;;;;5080086;28;20042;-88
2023/05/12 01:47:10;;;;;;;27.35;17.17;;;13.40;99.90;;;;;;5079995;28;20079;-87
2023/05/12 01:49:39;;;;;;;28.75;15.27;;;13.40;99.90;;;;;;5079952;28;20036;-87
2023/05/12 01:52:05;;;;;;;31.33;16.73;;;13.40;99.90;;;;;;5096765;28;20035;-87
2023/05/12 01:54:30;;;;;;;35.05;29.88;;;13.40;99.90;;;;;;5097034;28;20035;-87
2023/05/12 01:56:56;;;;;;;35.42;30.45;;;13.40;99.90;;;;;;5097043;28;20036;-87
2023/05/12 01:59:22;;;;;;;40.03;32.30;;;13.50;99.90;;;;;;5096700;28;20409;-87
2023/05/12 02:01:47;;;;;;;26.73;15.07;;;13.50;99.90;;;;;;5097491;27;20139;-87
2023/05/12 02:04:13;;;;;;;31.73;15.77;;;13.50;99.90;;;;;;5086943;28;20043;-88
2023/05/12 02:06:39;;;;;;;27.20;14.65;;;13.40;99.90;;;;;;5069743;28;20435;-88
2023/05/12 02:09:04;;;;;;;37.40;31.10;;;13.40;99.90;;;;;;5078489;28;20493;-87
2023/05/12 02:11:30;;;;;;;33.28;17.88;;;13.50;99.90;;;;;;5075939;28;20072;-87
2023/05/12 02:13:55;;;;;;;31.58;17.88;;;13.40;99.90;;;;;;5059666;28;20063;-87
2023/05/12 02:16:21;;;;;;;33.10;16.00;;;13.40;99.90;;;;;;5059813;28;20036;-87
2023/05/12 02:18:47;;;;;;;29.13;17.25;;;13.40;99.90;;;;;;5076079;28;20466;-87
2023/05/12 02:21:13;;;;;;;31.45;17.75;;;13.40;99.90;;;;;;5075739;28;20092;-87
2023/05/12 02:23:38;;;;;;;35.55;21.30;;;13.40;99.90;;;;;;5076033;28;20122;-87
2023/05/12 02:26:04;;;;;;;32.20;18.42;;;13.40;99.90;;;;;;5075986;28;20522;-87
2023/05/12 02:28:29;;;;;;;37.65;18.55;;;13.40;99.90;;;;;;5059329;28;20040;-87
2023/05/12 02:30:55;;;;;;;27.85;16.42;;;13.40;99.90;;;;;;5058969;28;20036;-87
2023/05/12 02:33:22;;;;;;;32.70;19.92;;;13.40;99.90;;;;;;5059130;28;20047;-88
2023/05/12 02:35:48;;;;;;;39.67;33.17;;;13.40;99.90;;;;;;5075767;28;20043;-87
2023/05/12 02:38:13;;;;;;;41.88;33.38;;;13.50;99.90;;;;;;5058954;28;20409;-87
2023/05/12 02:40:39;;;;;;;34.17;17.52;;;13.60;99.90;;;;;;5058789;28;20118;-87
2023/05/12 02:43:05;;;;;;;30.60;16.40;;;13.50;99.90;;;;;;5075744;28;20044;-87
2023/05/12 02:45:31;;;;;;;33.33;20.55;;;13.50;99.90;;;;;;5075955;28;20715;-87
2023/05/12 02:47:57;;;;;;;32.75;18.40;;;13.40;99.90;;;;;;5075654;28;20168;-87
2023/05/12 02:50:22;;;;;;;42.40;35.53;;;13.40;99.90;;;;;;5075765;28;20656;-87
2023/05/12 02:52:48;;;;;;;36.33;17.33;;;13.50;99.90;;;;;;5058690;28;20614;-87
2023/05/12 02:55:14;;;;;;;32.22;17.17;;;13.50;99.90;;;;;;5059037;28;20047;-87
2023/05/12 02:57:40;;;;;;;33.08;19.73;;;13.50;99.90;;;;;;5058700;28;20396;-87
2023/05/12 03:00:06;;;;;;;34.20;19.85;;;13.50;99.90;;;;;;5075157;28;20402;-87
2023/05/12 03:02:36;;;;;;;34.13;17.35;;;13.50;99.90;;;;;;5075307;28;20047;-87
2023/05/12 03:05:02;;;;;;;38.90;34.47;;;13.50;99.90;;;;;;5058779;28;20040;-87
2023/05/12 03:07:28;;;;;;;34.17;20.42;;;13.50;99.90;;;;;;5075131;28;20044;-87
2023/05/12 03:09:53;;;;;;;37.65;18.90;;;13.50;99.90;;;;;;5074652;28;20091;-87
2023/05/12 03:12:19;;;;;;;33.38;20.20;;;13.50;99.90;;;;;;5075104;28;20040;-87
2023/05/12 03:14:44;;;;;;;45.80;37.40;;;13.50;99.90;;;;;;5075044;28;20040;-87
2023/05/12 03:17:10;;;;;;;33.95;19.38;;;13.50;99.90;;;;;;5058294;28;20040;-88
2023/05/12 03:19:36;;;;;;;32.10;17.42;;;13.50;99.90;;;;;;5057550;28;20040;-87
2023/05/12 03:22:02;;;;;;;35.80;20.92;;;13.50;99.90;;;;;;5075161;28;20048;-87
2023/05/12 03:24:28;;;;;;;32.25;17.92;;;13.50;99.90;;;;;;5058150;28;20404;-87
2023/05/12 03:26:54;;;;;;;32.92;22.67;;;13.50;99.90;;;;;;5074827;28;20524;-87
2023/05/12 03:29:20;;;;;;;44.25;37.17;;;13.50;99.90;;;;;;5058213;28;20032;-87
2023/05/12 03:31:45;;;;;;;42.38;37.20;;;13.60;99.90;;;;;;5074273;28;20452;-88
2023/05/12 03:34:11;;;;;;;40.78;20.33;;;13.60;99.90;;;;;;5074659;28;20032;-87
2023/05/12 03:36:37;;;;;;;38.50;21.58;;;13.60;99.90;;;;;;5074549;28;20039;-87
2023/05/12 03:39:02;;;;;;;45.72;38.45;;;13.50;99.90;;;;;;5058022;28;20040;-87
2023/05/12 03:41:28;;;;;;;48.33;40.28;;;13.60;99.90;;;;;;5057492;28;20154;-87
2023/05/12 03:43:54;;;;;;;44.95;39.28;;;13.70;99.90;;;;;;5058015;28;20043;-87
2023/05/12 03:46:19;;;;;;;39.33;21.45;;;13.70;99.90;;;;;;5074348;28;20409;-88
2023/05/12 03:48:45;;;;;;;34.10;18.75;;;13.60;99.90;;;;;;5074507;28;20043;-87
2023/05/12 03:51:11;;;;;;;32.53;20.50;;;13.60;99.90;;;;;;5057619;28;20042;-88
2023/05/12 03:53:38;;;;;;;39.65;24.63;;;13.60;99.90;;;;;;5072382;28;20040;-87
2023/05/12 03:56:05;;;;;;;43.08;37.30;;;13.60;99.90;;;;;;5056212;28;20032;-88
2023/05/12 03:58:30;;;;;;;35.05;20.10;;;13.60;99.90;;;;;;5057423;28;20036;-88
2023/05/12 04:00:56;;;;;;;41.00;23.75;;;13.60;99.90;;;;;;5057228;28;20032;-87
2023/05/12 04:03:22;;;;;;;37.95;25.40;;;13.60;99.90;;;;;;5057399;28;20408;-88
2023/05/12 04:05:48;;;;;;;40.00;24.90;;;13.60;99.90;;;;;;5092470;28;20093;-88
2023/05/12 04:08:13;;;;;;;40.53;24.92;;;13.60;99.90;;;;;;5074260;28;20408;-87
2023/05/12 04:10:40;;;;;;;38.67;23.05;;;13.60;99.90;;;;;;5057348;28;20047;-87
2023/05/12 04:13:06;;;;;;;44.03;37.92;;;13.60;99.90;;;;;;5057255;28;20048;-87
2023/05/12 04:15:33;;;;;;;47.42;40.92;;;13.70;99.90;;;;;;5057254;28;20036;-87
2023/05/12 04:17:59;;;;;;;35.25;20.42;;;13.70;99.90;;;;;;5057235;28;20036;-88
2023/05/12 04:20:25;;;;;;;38.58;22.45;;;13.70;99.90;;;;;;5073594;28;20119;-88
2023/05/12 04:22:50;;;;;;;34.45;20.83;;;13.70;99.90;;;;;;5057146;28;20123;-88
2023/05/12 04:25:16;;;;;;;37.55;19.10;;;13.70;99.90;;;;;;5057182;28;20479;-87
2023/05/12 04:27:42;;;;;;;35.38;18.98;;;13.70;99.90;;;;;;5073836;28;20047;-87
2023/05/12 04:30:08;;;;;;;36.45;24.42;;;13.60;99.90;;;;;;5073633;28;20471;-87
2023/05/12 04:32:33;;;;;;;37.15;22.50;;;13.70;99.90;;;;;;5091484;28;20553;-87
2023/05/12 04:34:59;;;;;;;35.83;21.60;;;13.70;99.90;;;;;;5073757;28;20032;-87
2023/05/12 04:37:25;;;;;;;34.05;22.00;;;13.70;99.90;;;;;;5057144;28;20040;-87
2023/05/12 04:39:50;;;;;;;41.22;36.13;;;13.70;99.90;;;;;;5056725;28;20114;-88
2023/05/12 04:42:16;;;;;;;41.30;36.22;;;13.80;99.90;;;;;;5073707;28;20067;-87
2023/05/12 04:44:44;;;;;;;31.17;18.73;;;13.80;99.90;;;;;;5057038;28;20093;-87
2023/05/12 04:47:10;;;;;;;30.55;20.02;;;13.80;99.90;;;;;;5056843;28;20059;-88
2023/05/12 04:49:36;;;;;;;33.55;21.92;;;13.80;99.90;;;;;;5073309;28;20036;-88
2023/05/12 04:52:03;;;;;;;40.75;36.40;;;13.80;99.90;;;;;;5073786;28;20036;-88
2023/05/12 04:54:29;;;;;;;28.67;17.77;;;13.80;99.90;;;;;;5073718;28;20115;-88
2023/05/12 04:56:55;;;;;;;29.55;20.48;;;13.90;99.90;;;;;;5073860;28;20482;-87
2023/05/12 04:59:21;;;;;;;29.98;17.45;;;13.80;99.90;;;;;;5062269;28;20035;-88
2023/05/12 05:01:46;;;;;;;32.78;22.30;;;13.80;99.90;;;;;;5075969;28;20032;-87
2023/05/12 05:04:12;;;;;;;32.60;21.95;;;13.80;99.90;;;;;;5093360;28;20031;-88
2023/05/12 05:06:38;;;;;;;34.10;22.70;;;13.90;99.90;;;;;;5076200;28;20392;-88
2023/05/12 05:09:03;;;;;;;39.08;34.70;;;13.90;99.90;;;;;;5093247;28;20043;-88
2023/05/12 05:11:29;;;;;;;29.23;18.20;;;14.00;99.90;;;;;;5089936;28;20036;-88
2023/05/12 05:13:55;;;;;;;32.65;22.25;;;14.00;99.90;;;;;;5109477;28;20044;-87
2023/05/12 05:16:20;;;;;;;35.63;31.95;;;14.00;99.90;;;;;;5109859;28;20075;-87
2023/05/12 05:18:46;;;;;;;38.45;34.35;;;14.00;99.90;;;;;;5092684;28;20070;-88
2023/05/12 05:21:15;;;;;;;38.00;33.50;;;14.10;99.90;;;;;;5092333;28;20458;-87
2023/05/12 05:23:41;;;;;;;37.60;32.80;;;14.10;99.90;;;;;;5109993;28;20039;-88
2023/05/12 05:26:07;;;;;;;37.85;33.70;;;14.10;99.90;;;;;;5109481;28;20040;-87
2023/05/12 05:28:33;;;;;;;37.53;32.90;;;14.20;99.90;;;;;;5092821;28;20040;-87
2023/05/12 05:30:59;;;;;;;34.40;30.65;;;14.20;99.90;;;;;;5092451;28;20045;-87
2023/05/12 05:33:25;;;;;;;34.00;19.38;;;14.20;99.90;;;;;;5095365;28;20069;-87
2023/05/12 05:35:51;;;;;;;33.30;22.08;;;14.20;99.90;;;;;;5113150;28;20502;-87
2023/05/12 05:38:16;;;;;;;37.17;33.17;;;14.10;99.90;;;;;;5112181;28;20092;-87
2023/05/12 05:40:42;;;;;;;34.40;21.52;;;14.10;99.90;;;;;;5112625;28;20031;-88
2023/05/12 05:43:08;;;;;;;40.88;34.63;;;14.10;99.90;;;;;;5098557;27;20042;-89
2023/05/12 05:45:34;;;;;;;38.35;34.15;;;14.10;99.90;;;;;;5100124;27;20031;-89
2023/05/12 05:48:00;;;;;;;31.38;19.27;;;14.20;99.90;;;;;;5117514;27;20046;-89
2023/05/12 05:50:25;;;;;;;38.67;34.55;;;14.20;99.90;;;;;;5100121;27;20031;-88
2023/05/12 05:52:53;;;;;;;33.38;20.88;;;14.20;99.90;;;;;;5100008;27;20403;-88
2023/05/12 05:55:19;;;;;;;35.20;22.35;;;14.20;99.90;;;;;;5099872;27;20624;-88
2023/05/12 05:57:45;;;;;;;37.63;33.50;;;14.20;99.90;;;;;;5099598;27;20031;-88
2023/05/12 06:00:11;;;;;;;32.75;18.65;;;14.20;99.90;;;;;;5099219;27;20031;-88
2023/05/12 06:02:37;;;;;;;36.63;19.90;;;14.20;99.90;;;;;;5116480;27;20087;-87
2023/05/12 06:05:02;;;;;;;37.20;33.20;;;14.20;99.90;;;;;;5116594;27;20512;-88
2023/05/12 06:07:28;;;;;;;39.05;34.10;;;14.20;99.90;;;;;;5098740;27;20038;-88
2023/05/12 06:09:54;;;;;;;29.52;18.52;;;14.30;99.90;;;;;;5092975;28;20489;-88
2023/05/12 06:12:19;;;;;;;30.35;16.70;;;14.30;99.90;;;;;;5095757;28;20149;-88
2023/05/12 06:14:45;;;;;;;30.95;20.95;;;14.20;99.90;;;;;;5113712;28;20043;-88
2023/05/12 06:17:10;;;;;;;28.80;17.40;;;14.20;99.90;;;;;;5075467;28;20040;-87
2023/05/12 06:19:36;;;;;;;29.50;20.10;;;14.30;99.90;;;;;;5058692;28;20066;-88
2023/05/12 06:22:02;;;;;;;35.97;23.35;;;14.30;99.90;;;;;;5075290;28;20437;-88
2023/05/12 06:24:28;;;;;;;33.03;20.48;;;14.40;99.90;;;;;;5075589;28;20032;-88
2023/05/12 06:26:55;;;;;;;32.30;21.98;;;14.40;99.90;;;;;;5058708;28;20485;-88
2023/05/12 06:29:21;;;;;;;37.22;31.45;;;14.40;99.90;;;;;;5058828;28;20042;-87
2023/05/12 06:31:46;;;;;;;33.58;22.00;;;14.50;99.90;;;;;;5063737;27;20031;-88
2023/05/12 06:34:12;;;;;;;31.25;20.58;;;14.60;99.90;;;;;;5083288;28;20463;-88
2023/05/12 06:36:38;;;;;;;30.90;19.17;;;14.60;99.90;;;;;;5081851;27;20038;-88
2023/05/12 06:39:04;;;;;;;33.65;21.35;;;14.60;99.90;;;;;;5105824;27;20035;-87
2023/05/12 06:41:30;;;;;;;36.83;32.30;;;14.70;99.90;;;;;;5088134;27;20036;-87
2023/05/12 06:43:56;;;;;;;35.88;31.98;;;14.70;99.90;;;;;;5104202;27;20518;-87
2023/05/12 06:46:22;;;;;;;33.63;22.85;;;14.80;99.90;;;;;;5088794;27;20496;-87
2023/05/12 06:48:47;;;;;;;36.13;32.25;;;14.80;99.90;;;;;;5105484;27;20043;-88
2023/05/12 06:51:13;;;;;;;37.38;33.47;;;14.80;99.90;;;;;;5096119;28;20489;-88
2023/05/12 06:53:42;;;;;;;30.63;18.27;;;14.90;99.90;;;;;;5094507;28;20537;-88
2023/05/12 06:56:08;;;;;;;39.30;33.28;;;14.90;99.90;;;;;;5094372;28;20039;-88
2023/05/12 06:58:34;;;;;;;31.50;20.38;;;15.00;99.90;;;;;;5078344;28;20042;-88
2023/05/12 07:00:59;;;;;;;31.35;21.50;;;15.00;99.90;;;;;;5078220;28;20027;-88
2023/05/12 07:03:25;;;;;;;35.97;32.15;;;15.00;99.90;;;;;;5078402;28;20040;-88
2023/05/12 07:05:51;;;;;;;31.48;20.65;;;15.00;99.90;;;;;;5078215;28;20040;-88
2023/05/12 07:08:16;;;;;;;35.25;31.45;;;15.10;99.90;;;;;;5094979;28;20042;-88
2023/05/12 07:10:42;;;;;;;34.50;30.92;;;15.20;99.90;;;;;;5094666;28;20059;-88
2023/05/12 07:13:08;;;;;;;33.00;20.83;;;15.30;99.90;;;;;;5078155;28;20047;-88
2023/05/12 07:15:33;;;;;;;29.10;19.98;;;15.30;99.90;;;;;;5094827;28;20039;-88
2023/05/12 07:17:59;;;;;;;35.95;32.15;;;15.20;99.90;;;;;;5078025;28;20031;-89
2023/05/12 07:20:25;;;;;;;35.75;32.25;;;15.30;99.90;;;;;;5094763;28;20398;-88
2023/05/12 07:22:53;;;;;;;36.30;32.38;;;15.40;99.90;;;;;;5078055;28;20174;-88
2023/05/12 07:25:20;;;;;;;36.25;32.35;;;15.40;99.90;;;;;;5077860;28;20040;-88
2023/05/12 07:27:46;;;;;;;27.25;19.67;;;15.40;99.90;;;;;;5078051;28;20073;-88
2023/05/12 07:30:12;;;;;;;35.72;31.92;;;15.40;99.90;;;;;;5094855;28;20051;-88
2023/05/12 07:32:37;;;;;;;36.40;32.50;;;15.40;99.90;;;;;;5094867;28;20511;-88
2023/05/12 07:35:03;;;;;;;35.60;31.92;;;15.50;99.90;;;;;;5077879;28;20100;-88
2023/05/12 07:37:30;;;;;;;36.90;33.20;;;15.50;99.90;;;;;;5094472;28;20435;-88
2023/05/12 07:39:56;;;;;;;28.73;18.52;;;15.60;99.90;;;;;;5094521;28;20528;-89
2023/05/12 07:42:22;;;;;;;33.30;20.02;;;15.60;99.90;;;;;;5077643;28;20067;-88
2023/05/12 07:44:48;;;;;;;37.17;33.17;;;15.60;99.90;;;;;;5077536;28;20511;-88
2023/05/12 07:47:14;;;;;;;37.75;33.60;;;15.60;99.90;;;;;;5094633;28;20040;-88
2023/05/12 07:49:39;;;;;;;33.88;21.67;;;15.70;99.90;;;;;;5077089;28;20051;-88
2023/05/12 07:52:05;;;;;;;36.97;33.15;;;15.70;99.90;;;;;;5077517;28;20054;-87
2023/05/12 07:54:31;;;;;;;31.42;21.90;;;15.70;99.90;;;;;;5077288;28;20700;-88
2023/05/12 07:56:57;;;;;;;30.45;18.83;;;15.70;99.90;;;;;;5094135;28;20043;-88
2023/05/12 07:59:22;;;;;;;35.88;32.08;;;15.70;99.90;;;;;;5077243;28;20039;-88
2023/05/12 08:01:48;;;;;;;36.88;33.05;;;15.70;99.90;;;;;;5077016;28;20045;-88
2023/05/12 08:04:14;;;;;;;30.25;20.55;;;15.80;99.90;;;;;;5094327;28;20040;-88
2023/05/12 08:06:39;;;;;;;35.92;32.33;;;15.90;99.90;;;;;;5076290;28;20462;-88
2023/05/12 08:09:05;;;;;;;34.13;30.60;;;15.90;99.90;;;;;;5077305;28;20080;-88
2023/05/12 08:11:31;;;;;;;36.65;32.90;;;16.00;99.90;;;;;;5111786;28;20511;-88
2023/05/12 08:13:57;;;;;;;36.55;32.85;;;16.10;99.90;;;;;;5093911;28;20481;-88
2023/05/12 08:16:22;;;;;;;28.73;21.33;;;16.10;99.90;;;;;;5093960;28;20035;-88
2023/05/12 08:18:48;;;;;;;30.98;21.05;;;16.10;99.90;;;;;;5094229;28;20396;-88
2023/05/12 08:21:13;;;;;;;35.53;32.05;;;16.10;99.90;;;;;;5093685;28;20532;-88
2023/05/12 08:23:39;;;;;;;33.60;30.17;;;16.20;99.90;;;;;;5076496;28;20054;-88
2023/05/12 08:26:05;;;;;;;28.25;20.08;;;16.30;99.90;;;;;;5077098;28;20046;-88
2023/05/12 08:28:31;;;;;;;32.65;29.35;;;16.40;99.90;;;;;;5093575;28;20529;-88
2023/05/12 08:30:57;;;;;;;35.50;32.10;;;16.50;99.90;;;;;;5076565;28;20066;-88
2023/05/12 08:33:23;;;;;;;33.47;30.17;;;16.60;99.90;;;;;;5093588;28;20063;-88
2023/05/12 08:35:49;;;;;;;33.20;29.90;;;16.70;99.90;;;;;;5076609;28;20488;-88
2023/05/12 08:38:16;;;;;;;34.25;30.90;;;16.80;99.90;;;;;;5076551;28;20628;-88
2023/05/12 08:41:24;;;;;;;33.45;30.10;;;16.90;99.90;;;;;;5093414;28;20039;-88
2023/05/12 08:43:51;;;;;;;35.70;32.13;;;17.00;99.90;;;;;;5093455;28;20118;-89
2023/05/12 08:46:17;;;;;;;34.30;31.00;;;17.10;99.90;;;;;;5093184;28;20051;-88
2023/05/12 08:48:46;;;;;;;29.25;23.85;;;17.20;99.90;;;;;;5076850;28;20036;-88
2023/05/12 08:51:12;;;;;;;34.47;31.10;;;17.20;99.90;;;;;;5093472;28;20073;-89
2023/05/12 08:53:40;;;;;;;30.65;27.55;;;17.20;99.90;;;;;;5092513;28;20040;-89
2023/05/12 08:56:08;;;;;;;31.77;28.67;;;17.30;99.90;;;;;;5076894;28;20043;-89
2023/05/12 08:58:35;;;;;;;31.30;28.23;;;17.40;99.90;;;;;;5093471;28;20077;-89
2023/05/12 09:01:03;;;;;;;31.38;28.38;;;17.40;99.90;;;;;;5076548;28;20142;-89
2023/05/12 09:03:30;;;;;;;31.10;28.00;;;17.50;99.90;;;;;;5076665;28;20040;-89
2023/05/12 09:05:57;;;;;;;30.17;27.27;;;17.50;99.90;;;;;;5077485;28;20048;-89
2023/05/12 09:08:30;;;;;;;29.42;26.58;;;17.50;99.90;;;;;;5077102;28;20039;-89
2023/05/12 09:10:56;;;;;;;;;;;17.60;99.90;;;;;;5077093;28;20126;-89
2023/05/12 09:13:45;;;;;;;28.88;26.02;;;17.60;99.90;;;;;;5075053;28;20034;-89
2023/05/12 09:16:12;;;;;;;30.00;27.13;;;17.70;99.90;;;;;;5067276;28;20435;-89
2023/05/12 09:18:51;;;;;;;29.90;27.00;;;17.80;99.90;;;;;;5085739;28;20024;-89
2023/05/12 09:21:17;;;;;;;29.77;26.88;;;17.90;99.90;;;;;;5078896;27;20028;-89
2023/05/12 09:23:53;;;;;;;29.15;26.45;;;18.00;99.90;;;;;;5096870;27;20032;-89
2023/05/12 09:26:21;;;;;;;30.13;27.23;;;18.10;99.90;;;;;;5090431;27;20042;-89
2023/05/12 09:28:47;;;;;;;28.23;25.45;;;18.20;99.90;;;;;;5087404;28;20118;-89
2023/05/12 09:31:17;;;;;;;29.30;26.40;;;18.30;99.90;;;;;;5087331;28;20123;-89
2023/05/12 09:33:43;;;;;;;28.50;25.67;;;18.50;99.90;;;;;;5086199;28;20037;-89
2023/05/12 09:36:08;;;;;;;27.23;24.55;;;18.60;99.90;;;;;;5073130;28;20533;-89
2023/05/12 09:38:34;;;;;;;29.60;26.70;;;18.70;99.90;;;;;;5070164;28;20036;-89
2023/05/12 09:40:59;;;;;;;28.00;25.30;;;18.90;99.90;;;;;;5084931;28;20093;-89
2023/05/12 09:43:25;;;;;;;28.10;25.40;;;19.00;99.90;;;;;;5069099;28;20040;-89
2023/05/12 09:45:51;;;;;;;25.15;22.75;;;19.10;99.90;;;;;;5069724;28;20128;-89
2023/05/12 09:48:16;;;;;;;25.33;22.92;;;19.20;99.90;;;;;;5084722;28;20046;-88
2023/05/12 09:50:44;;;;;;;24.98;22.55;;;19.30;99.90;;;;;;5093595;28;20046;-89
2023/05/12 09:53:10;;;;;;;24.83;22.38;;;19.50;99.90;;;;;;5096861;28;20039;-89
2023/05/12 09:55:36;;;;;;;23.75;21.45;;;19.60;99.90;;;;;;5096789;28;20131;-89
2023/05/12 09:58:07;;;;;;;23.42;21.23;;;19.70;99.90;;;;;;5095477;28;20118;-89
2023/05/12 10:00:34;;;;;;;21.85;19.75;;;19.80;99.90;;;;;;5095765;28;20040;-88
2023/05/12 10:03:04;;;;;;;22.23;20.10;;;19.90;99.90;;;;;;5096081;28;20044;-89
2023/05/12 10:05:31;;;;;;;23.83;21.60;;;20.00;99.90;;;;;;5079203;28;20046;-89
2023/05/12 10:07:59;;;;;;;21.70;19.38;;;20.00;99.90;;;;;;5096174;28;20042;-89
2023/05/12 10:10:26;;;;;;;23.35;21.20;;;20.20;99.90;;;;;;5081956;27;20035;-88
2023/05/12 10:12:52;;;;;;;20.15;18.25;;;20.20;99.90;;;;;;5105727;27;20039;-88
2023/05/12 10:15:19;;;;;;;19.77;17.98;;;20.30;99.90;;;;;;5088597;27;20038;-89
2023/05/12 10:17:47;;;;;;;19.17;17.25;;;20.40;99.90;;;;;;5089816;27;20031;-89
2023/05/12 10:20:14;;;;;;;18.65;16.85;;;20.50;99.90;;;;;;5096782;27;20118;-88
2023/05/12 10:22:40;;;;;;;21.15;18.85;;;20.70;99.90;;;;;;5099642;27;20121;-89
2023/05/12 10:25:10;;;;;;;19.55;17.65;;;20.80;99.90;;;;;;5099574;27;20051;-88
2023/05/12 10:27:36;;;;;;;20.40;18.50;;;20.90;99.90;;;;;;5116073;27;20442;-89
2023/05/12 10:30:03;;;;;;;19.17;17.35;;;21.10;99.90;;;;;;5114810;27;20034;-89
2023/05/12 10:32:29;;;;;;;18.35;16.55;;;21.10;99.90;;;;;;5099416;27;20095;-88
2023/05/12 10:35:05;;;;;;;16.77;15.18;;;21.30;99.90;;;;;;5134987;27;20118;-89
2023/05/12 10:37:33;;;;;;;16.63;15.02;;;21.30;99.90;;;;;;5098179;27;20188;-89
2023/05/12 10:40:01;;;;;;;15.90;14.20;;;21.40;99.90;;;;;;5099432;27;20039;-89
2023/05/12 10:42:35;;;;;;;13.70;12.30;;;21.50;99.90;;;;;;5116275;27;20043;-89
2023/05/12 10:45:03;;;;;;;15.48;13.95;;;21.70;99.90;;;;;;5099218;27;20073;-88
2023/05/12 10:47:36;;;;;;;14.48;13.07;;;21.80;99.90;;;;;;5116372;27;20051;-88
2023/05/12 10:50:02;;;;;;;13.45;12.15;;;21.90;99.90;;;;;;5115447;27;20090;-89
2023/05/12 10:52:27;;;;;;;12.25;10.40;;;22.00;99.90;;;;;;5098640;27;20047;-89
2023/05/12 10:54:59;;;;;;;11.98;10.70;;;22.10;99.90;;;;;;5115826;27;20035;-89
2023/05/12 10:57:25;;;;;;;13.45;12.05;;;22.10;99.90;;;;;;5098988;27;20126;-88
2023/05/12 10:59:59;;;;;;;12.98;10.93;;;22.30;99.90;;;;;;5098625;27;20420;-89
2023/05/12 11:02:36;;;;;;;11.98;10.77;;;22.30;99.90;;;;;;5098765;27;20031;-89
2023/05/12 11:05:09;;;;;;;12.93;11.57;;;22.40;99.90;;;;;;5116137;27;20039;-90
2023/05/12 11:07:35;;;;;;;13.63;12.23;;;22.50;99.80;;;;;;5098671;27;20071;-89
2023/05/12 11:10:03;;;;;;;13.52;12.15;;;22.50;99.90;;;;;;5098573;27;20076;-90
2023/05/12 11:12:31;;;;;;;13.73;12.15;;;22.70;99.90;;;;;;5098946;27;20404;-89
2023/05/12 11:14:59;;;;;;;14.52;13.13;;;22.80;99.90;;;;;;5115602;27;20038;-89
2023/05/12 11:17:25;;;;;;;12.35;10.80;;;23.00;99.90;;;;;;5115334;27;20043;-89
2023/05/12 11:19:51;;;;;;;13.05;11.65;;;23.10;99.90;;;;;;5098572;27;20123;-90
2023/05/12 11:22:19;;;;;;;12.52;11.23;;;23.20;97.90;;;;;;5094249;28;20063;-89
2023/05/12 11:24:45;;;;;;;12.55;11.25;;;23.30;98.30;;;;;;5067596;28;20028;-89
2023/05/12 11:27:15;;;;;;;13.02;11.63;;;23.30;95.20;;;;;;5067359;28;20046;-89
2023/05/12 11:29:42;;;;;;;14.00;12.63;;;23.50;96.00;;;;;;5061296;28;20071;-89
2023/05/12 11:32:11;;;;;;;14.05;12.57;;;23.50;96.10;;;;;;5077942;28;20547;-89
2023/05/12 11:34:37;;;;;;;14.48;12.75;;;23.60;95.80;;;;;;5078906;28;20057;-89
2023/05/12 11:37:04;;;;;;;14.85;13.25;;;23.70;98.40;;;;;;5078406;28;20058;-89
2023/05/12 11:39:33;;;;;;;15.63;14.13;;;23.80;97.60;;;;;;5077972;28;20039;-90
2023/05/12 11:42:03;;;;;;;15.70;14.10;;;24.00;98.30;;;;;;5085329;27;20031;-90
2023/05/12 11:44:29;;;;;;;14.30;12.80;;;24.10;97.00;;;;;;5083581;27;20107;-88
2023/05/12 11:47:02;;;;;;;13.07;11.43;;;24.30;96.10;;;;;;5086851;27;20036;-89
2023/05/12 11:49:30;;;;;;;13.82;11.70;;;24.40;93.50;;;;;;5092350;28;20051;-90
2023/05/12 11:52:00;;;;;;;16.10;12.73;;;24.50;91.80;;;;;;5074334;28;20409;-89
2023/05/12 11:54:28;;;;;;;12.50;10.70;;;24.60;92.50;;;;;;5092683;28;20044;-89
2023/05/12 11:56:55;;;;;;;12.75;10.82;;;24.70;90.10;;;;;;5057259;28;20036;-89
2023/05/12 11:59:32;;;;;;;12.57;10.52;;;24.80;85.50;;;;;;5057308;28;20040;-89
2023/05/12 12:01:59;;;;;;;12.80;11.45;;;24.90;82.20;;;;;;5074427;28;20398;-89
2023/05/12 12:04:39;;;;;;;10.65;8.65;;;24.90;82.80;;;;;;5092490;28;20382;-90
2023/05/12 12:07:06;;;;;;;10.95;7.55;;;25.00;80.00;;;;;;5057141;28;20036;-90
2023/05/12 12:09:35;;;;;;;10.30;8.90;;;25.00;76.80;;;;;;5091833;28;20517;-90
2023/05/12 12:12:02;;;;;;;11.15;8.48;;;25.00;74.40;;;;;;5057395;28;20090;-90
2023/05/12 12:14:29;;;;;;;12.65;11.07;;;25.10;74.60;;;;;;5091952;28;20036;-90
2023/05/12 12:16:55;;;;;;;13.50;12.10;;;25.20;74.40;;;;;;5073732;28;20047;-89
2023/05/12 12:19:20;;;;;;;12.32;11.02;;;25.20;75.70;;;;;;5091861;28;20040;-89
2023/05/12 12:21:46;;;;;;;13.88;10.60;;;25.30;77.40;;;;;;5056900;28;20078;-89
2023/05/12 12:24:12;;;;;;;14.20;11.50;;;25.40;78.90;;;;;;5057493;28;20066;-89
2023/05/12 12:26:38;;;;;;;12.63;11.18;;;25.50;78.90;;;;;;5073382;28;20036;-89